Alton, Iowa
Current Conditions -  °F | °C
As of 11:15 PM on Friday 28 Nov 2014 (Local Time) from KORC Reporting Station
Clear Clear  
Wind Chill: 20°   Ceiling: Unl
Heat Index: 28°   Visibility: 7mi
Dew Point: 25°   Wind: 8mph
Humidity: 86%   Direction: 100°E
Pressure: 29.56"   Gusts: NA
Location:  42.99°N, 96.01°W
Report Text: KORC 290515Z AUTO 10007KT 7SM CLR M02/M04 A2956 RMK AO2
Loading
Personal Weather Stations






























Interactive Weather Map New forecast layout! Learn more

10-Day Weather Forecast

Advertisements
Track Severe Weather on mobile